createdAt,value
2023-03-17T00:01:05.889Z,6.97
2023-03-17T00:03:29.594Z,6.70
2023-03-17T00:05:51.107Z,6.83
2023-03-17T00:08:14.086Z,7.40
2023-03-17T00:10:36.557Z,7.13
2023-03-17T00:12:59.489Z,6.87
2023-03-17T00:15:22.169Z,7.37
2023-03-17T00:17:43.523Z,6.73
2023-03-17T00:20:06.223Z,7.60
2023-03-17T00:22:27.847Z,6.63
2023-03-17T00:24:49.457Z,6.87
2023-03-17T00:27:12.360Z,7.03
2023-03-17T00:29:35.874Z,7.00
2023-03-17T00:31:57.960Z,7.00
2023-03-17T00:34:19.893Z,7.13
2023-03-17T00:36:43.387Z,7.00
2023-03-17T00:39:04.708Z,7.10
2023-03-17T00:41:26.176Z,7.17
2023-03-17T00:43:47.199Z,7.20
2023-03-17T00:46:13.028Z,6.90
2023-03-17T00:48:34.094Z,7.37
2023-03-17T00:50:56.073Z,6.93
2023-03-17T00:53:18.673Z,7.20
2023-03-17T00:55:40.146Z,7.53
2023-03-17T00:58:02.046Z,7.90
2023-03-17T01:00:26.417Z,7.70
2023-03-17T01:02:49.125Z,7.13
2023-03-17T01:05:11.050Z,7.10
2023-03-17T01:07:32.283Z,6.87
2023-03-17T01:09:53.609Z,6.73
2023-03-17T01:12:15.906Z,6.90
2023-03-17T01:14:38.078Z,7.43
2023-03-17T01:17:00.683Z,6.67
2023-03-17T01:19:23.660Z,7.17
2023-03-17T01:21:45.670Z,7.10
2023-03-17T01:24:08.220Z,6.70
2023-03-17T01:26:29.396Z,7.50
2023-03-17T01:28:50.747Z,6.80
2023-03-17T01:31:12.682Z,7.00
2023-03-17T01:33:33.842Z,7.10
2023-03-17T01:35:57.540Z,6.43
2023-03-17T01:38:19.161Z,7.40
2023-03-17T01:40:43.834Z,7.07
2023-03-17T01:43:17.378Z,6.73
2023-03-17T01:45:57.628Z,7.03
2023-03-17T01:48:19.700Z,6.73
2023-03-17T01:50:41.095Z,7.10
2023-03-17T01:53:04.704Z,7.30
2023-03-17T01:55:26.070Z,7.03
2023-03-17T01:57:50.782Z,6.97
2023-03-17T02:00:13.812Z,6.93
2023-03-17T02:02:37.013Z,6.60
2023-03-17T02:04:58.383Z,6.97
2023-03-17T02:07:20.764Z,6.70
2023-03-17T02:09:44.733Z,6.83
2023-03-17T02:12:06.999Z,6.60
2023-03-17T02:14:28.711Z,7.00
2023-03-17T02:16:50.905Z,6.87
2023-03-17T02:19:12.702Z,6.67
2023-03-17T02:21:42.887Z,6.70
2023-03-17T02:24:07.176Z,6.67
2023-03-17T02:26:30.840Z,6.90
2023-03-17T02:28:52.118Z,7.13
2023-03-17T02:31:13.455Z,7.17
2023-03-17T02:33:35.687Z,6.77
2023-03-17T02:35:57.563Z,6.73
2023-03-17T02:38:20.315Z,6.97
2023-03-17T02:40:42.330Z,6.80
2023-03-17T02:43:05.832Z,6.80
2023-03-17T02:45:27.525Z,6.77
2023-03-17T02:47:49.488Z,6.80
2023-03-17T02:50:14.942Z,7.07
2023-03-17T02:52:37.736Z,7.07
2023-03-17T02:55:00.803Z,7.40
2023-03-17T02:57:22.231Z,7.70
2023-03-17T02:59:43.952Z,7.07
2023-03-17T03:02:06.521Z,6.97
2023-03-17T03:04:27.602Z,6.90
2023-03-17T03:06:48.907Z,7.20
2023-03-17T03:09:11.671Z,6.80
2023-03-17T03:11:34.471Z,6.50
2023-03-17T03:13:56.124Z,7.53
2023-03-17T03:16:17.239Z,6.83
2023-03-17T03:18:38.852Z,7.30
2023-03-17T03:21:00.746Z,7.90
2023-03-17T03:23:21.879Z,7.47
2023-03-17T03:25:43.184Z,7.20
2023-03-17T03:28:06.511Z,7.30
2023-03-17T03:30:27.783Z,7.13
2023-03-17T03:32:49.448Z,7.37
2023-03-17T03:35:11.630Z,7.07
2023-03-17T03:37:33.118Z,8.33
2023-03-17T03:39:56.318Z,8.40
2023-03-17T03:42:18.582Z,8.47
2023-03-17T03:44:41.214Z,8.50
2023-03-17T03:47:03.085Z,8.23
2023-03-17T03:49:24.483Z,8.13
2023-03-17T03:51:45.832Z,8.17
2023-03-17T03:54:07.301Z,8.33
2023-03-17T03:56:28.424Z,9.13
2023-03-17T03:58:50.468Z,8.33
2023-03-17T04:01:12.888Z,7.93
2023-03-17T04:03:34.323Z,8.10
2023-03-17T04:05:56.045Z,8.47
2023-03-17T04:08:17.436Z,8.90
2023-03-17T04:10:38.675Z,8.40
2023-03-17T04:13:00.918Z,8.37
2023-03-17T04:15:22.029Z,8.10
2023-03-17T04:17:45.787Z,8.53
2023-03-17T04:20:07.653Z,8.07
2023-03-17T04:22:28.950Z,8.40
2023-03-17T04:24:50.491Z,8.50
2023-03-17T04:27:12.223Z,8.47
2023-03-17T04:29:33.270Z,8.87
2023-03-17T04:31:54.855Z,8.97
2023-03-17T04:34:19.353Z,8.60
2023-03-17T04:36:40.874Z,8.87
2023-03-17T04:39:04.768Z,8.60
2023-03-17T04:41:25.886Z,8.30
2023-03-17T04:43:49.285Z,9.20
2023-03-17T04:46:10.938Z,8.23
2023-03-17T04:48:32.775Z,8.07
2023-03-17T04:50:55.416Z,8.73
2023-03-17T04:53:17.687Z,8.23
2023-03-17T04:55:38.761Z,9.40
2023-03-17T04:58:00.461Z,7.97
2023-03-17T05:00:22.623Z,8.37
2023-03-17T05:02:44.183Z,8.93
2023-03-17T05:05:06.108Z,8.93
2023-03-17T05:07:28.991Z,8.77
2023-03-17T05:09:50.270Z,9.13
2023-03-17T05:12:12.701Z,9.30
2023-03-17T05:14:33.930Z,8.70
2023-03-17T05:16:55.416Z,8.70
2023-03-17T05:19:17.492Z,9.30
2023-03-17T05:21:38.638Z,8.43
2023-03-17T05:24:01.296Z,8.87
2023-03-17T05:26:24.835Z,8.43
2023-03-17T05:28:45.879Z,8.57
2023-03-17T05:31:10.950Z,8.97
2023-03-17T05:33:32.381Z,9.17
2023-03-17T05:35:53.766Z,8.47
2023-03-17T05:38:15.841Z,8.37
2023-03-17T05:40:38.658Z,8.33
2023-03-17T05:42:59.993Z,9.03
2023-03-17T05:45:22.200Z,8.73
2023-03-17T05:47:43.675Z,9.27
2023-03-17T05:50:05.282Z,8.80
2023-03-17T05:52:26.306Z,8.80
2023-03-17T05:54:49.068Z,9.10
2023-03-17T05:57:12.661Z,8.97
2023-03-17T05:59:33.745Z,9.17
2023-03-17T06:01:55.107Z,9.47
2023-03-17T06:04:17.542Z,9.17
2023-03-17T06:06:39.074Z,9.00
2023-03-17T06:09:01.183Z,9.10
2023-03-17T06:11:22.584Z,9.07
2023-03-17T06:13:45.718Z,8.57
2023-03-17T06:16:07.286Z,8.37
2023-03-17T06:18:28.634Z,8.33
2023-03-17T06:20:49.839Z,8.90
2023-03-17T06:23:11.333Z,8.23
2023-03-17T06:25:33.075Z,9.27
2023-03-17T06:27:56.135Z,8.80
2023-03-17T06:30:19.111Z,8.97
2023-03-17T06:32:40.513Z,8.97
2023-03-17T06:35:01.631Z,9.20
2023-03-17T06:37:23.055Z,8.97
2023-03-17T06:39:45.184Z,11.73
2023-03-17T06:42:06.520Z,11.87
2023-03-17T06:44:27.861Z,13.50
2023-03-17T06:46:50.466Z,12.80
2023-03-17T06:49:13.441Z,12.03
2023-03-17T06:51:36.425Z,13.30
2023-03-17T06:53:57.989Z,11.83
2023-03-17T06:56:29.501Z,11.27
2023-03-17T06:58:51.848Z,10.50
2023-03-17T07:01:14.326Z,10.40
2023-03-17T07:03:38.480Z,9.60
2023-03-17T07:06:00.100Z,9.27
2023-03-17T07:08:22.183Z,9.47
2023-03-17T07:10:44.231Z,9.20
2023-03-17T07:13:07.675Z,9.77
2023-03-17T07:15:28.994Z,12.43
2023-03-17T07:17:50.644Z,10.07
2023-03-17T07:20:14.194Z,8.80
2023-03-17T07:22:35.731Z,8.53
2023-03-17T07:24:57.509Z,8.87
2023-03-17T07:27:20.779Z,8.87
2023-03-17T07:29:43.740Z,9.03
2023-03-17T07:32:07.386Z,8.40
2023-03-17T07:34:29.047Z,8.73
2023-03-17T07:36:51.627Z,9.23
2023-03-17T07:39:13.136Z,9.10
2023-03-17T07:41:35.114Z,8.70
2023-03-17T07:43:57.287Z,9.43
2023-03-17T07:46:18.361Z,9.33
2023-03-17T07:48:42.168Z,8.33
2023-03-17T07:51:04.086Z,8.37
2023-03-17T07:53:26.910Z,8.50
2023-03-17T07:55:47.858Z,8.23
2023-03-17T07:58:09.334Z,8.13
2023-03-17T08:00:30.845Z,8.47
2023-03-17T08:03:07.049Z,8.30
2023-03-17T08:05:30.997Z,7.60
2023-03-17T08:07:52.132Z,8.20
2023-03-17T08:10:15.657Z,8.03
2023-03-17T08:12:37.546Z,8.10
2023-03-17T08:14:58.871Z,7.70
2023-03-17T08:17:21.171Z,7.97
2023-03-17T08:19:42.464Z,8.40
2023-03-17T08:22:03.826Z,8.37
2023-03-17T08:24:26.283Z,8.27
2023-03-17T08:26:50.295Z,7.70
2023-03-17T08:29:11.428Z,8.63
2023-03-17T08:31:33.841Z,8.27
2023-03-17T08:33:57.381Z,8.40
2023-03-17T08:36:19.967Z,7.37
2023-03-17T08:38:42.134Z,7.20
2023-03-17T08:41:03.557Z,6.67
2023-03-17T08:43:26.478Z,6.67
2023-03-17T08:45:48.153Z,6.60
2023-03-17T08:48:09.557Z,6.00
2023-03-17T08:50:31.087Z,6.17
2023-03-17T08:52:52.835Z,6.70
2023-03-17T08:55:14.451Z,5.03
2023-03-17T08:57:35.822Z,5.07
2023-03-17T08:59:58.511Z,5.00
2023-03-17T09:02:20.278Z,4.83
2023-03-17T09:04:41.823Z,4.90
2023-03-17T09:07:04.440Z,4.80
2023-03-17T09:09:25.810Z,4.67
2023-03-17T09:11:47.145Z,4.87
2023-03-17T09:14:09.554Z,4.70
2023-03-17T09:16:34.034Z,6.30
2023-03-17T09:18:55.317Z,5.97
2023-03-17T09:21:17.393Z,5.67
2023-03-17T09:23:39.004Z,5.77
2023-03-17T09:26:00.804Z,5.77
2023-03-17T09:28:22.394Z,5.10
2023-03-17T09:30:43.948Z,4.90
2023-03-17T09:33:06.549Z,4.93
2023-03-17T09:35:29.849Z,5.00
2023-03-17T09:37:51.840Z,4.13
2023-03-17T09:40:16.066Z,4.20
2023-03-17T09:42:43.242Z,4.37
2023-03-17T09:45:12.778Z,4.20
2023-03-17T09:47:43.284Z,4.07
2023-03-17T09:50:10.700Z,4.37
2023-03-17T09:52:32.760Z,4.47
2023-03-17T09:54:53.877Z,4.40
2023-03-17T09:57:18.006Z,4.53
2023-03-17T09:59:41.902Z,4.10
2023-03-17T10:02:03.307Z,4.27
2023-03-17T10:04:25.243Z,4.03
2023-03-17T10:06:48.360Z,4.47
2023-03-17T10:09:14.597Z,4.03
2023-03-17T10:11:40.265Z,4.90
2023-03-17T10:14:03.351Z,4.17
2023-03-17T10:16:28.501Z,3.87
2023-03-17T10:18:53.096Z,4.47
2023-03-17T10:21:16.945Z,4.03
2023-03-17T10:23:39.656Z,4.13
2023-03-17T10:26:03.369Z,4.33
2023-03-17T10:28:26.987Z,3.77
2023-03-17T10:30:48.155Z,4.27
2023-03-17T10:33:09.463Z,4.30
2023-03-17T10:35:36.713Z,4.40
2023-03-17T10:38:13.601Z,4.13
2023-03-17T10:40:37.301Z,4.20
2023-03-17T10:43:02.335Z,4.03
2023-03-17T10:45:28.334Z,4.23
2023-03-17T10:47:50.124Z,3.90
2023-03-17T10:50:23.085Z,4.30
2023-03-17T10:52:46.594Z,4.10
2023-03-17T10:55:09.133Z,4.07
2023-03-17T10:57:32.526Z,4.70
2023-03-17T10:59:54.342Z,4.37
2023-03-17T11:02:20.117Z,4.60
2023-03-17T11:04:42.683Z,4.53
2023-03-17T11:07:07.762Z,4.63
2023-03-17T11:09:33.081Z,4.07
2023-03-17T11:12:01.604Z,4.47
2023-03-17T11:14:27.150Z,4.50
2023-03-17T11:16:53.819Z,3.80
2023-03-17T11:19:16.935Z,4.97
2023-03-17T11:21:47.481Z,4.13
2023-03-17T11:27:32.446Z,4.00
2023-03-17T11:30:02.764Z,4.00
2023-03-17T11:32:28.248Z,3.20
2023-03-17T11:34:56.872Z,3.43
2023-03-17T11:37:22.704Z,3.10
2023-03-17T11:39:47.962Z,3.20
2023-03-17T11:42:12.406Z,2.80
2023-03-17T11:44:52.716Z,3.10
2023-03-17T11:47:21.751Z,3.13
2023-03-17T11:49:44.682Z,3.33
2023-03-17T11:52:08.604Z,3.60
2023-03-17T11:54:35.290Z,3.30
2023-03-17T11:56:59.966Z,3.27
2023-03-17T11:59:27.047Z,3.10
2023-03-17T12:01:54.795Z,2.83
2023-03-17T12:04:20.268Z,3.10
2023-03-17T12:06:46.006Z,3.07
2023-03-17T12:09:10.140Z,2.70
2023-03-17T12:11:33.435Z,2.87
2023-03-17T12:13:56.827Z,2.77
2023-03-17T12:16:20.218Z,2.73
2023-03-17T12:18:43.518Z,2.60
2023-03-17T12:21:10.069Z,2.70
2023-03-17T12:23:34.428Z,2.50
2023-03-17T12:25:59.343Z,2.43
2023-03-17T12:28:23.008Z,2.40
2023-03-17T12:30:47.543Z,2.63
2023-03-17T12:33:12.931Z,2.67
2023-03-17T12:35:35.138Z,2.47
2023-03-17T12:37:59.966Z,2.53
2023-03-17T12:40:25.256Z,2.30
2023-03-17T12:42:53.559Z,2.40
2023-03-17T12:45:23.271Z,1.90
2023-03-17T12:47:59.118Z,2.20
2023-03-17T12:50:29.109Z,2.13
2023-03-17T12:53:08.518Z,2.10
2023-03-17T12:55:32.965Z,1.60
2023-03-17T12:58:00.762Z,1.80
2023-03-17T13:00:25.663Z,1.80
2023-03-17T13:02:50.125Z,1.40
2023-03-17T13:05:15.592Z,1.40
2023-03-17T13:07:39.751Z,1.50
2023-03-17T13:10:28.380Z,1.50
2023-03-17T13:13:06.372Z,1.67
2023-03-17T13:15:30.787Z,1.50
2023-03-17T13:17:52.900Z,1.33
2023-03-17T13:20:15.846Z,1.47
2023-03-17T13:22:37.661Z,1.57
2023-03-17T13:25:12.667Z,1.13
2023-03-17T13:27:44.860Z,1.30
2023-03-17T13:30:33.128Z,1.20
2023-03-17T13:32:59.470Z,1.30
2023-03-17T13:35:22.132Z,1.37
2023-03-17T13:37:50.431Z,1.17
2023-03-17T13:40:15.737Z,1.33
2023-03-17T13:42:44.903Z,1.40
2023-03-17T13:45:17.746Z,1.30
2023-03-17T13:47:40.075Z,1.10
2023-03-17T13:50:04.971Z,1.27
2023-03-17T13:52:28.547Z,1.40
2023-03-17T13:54:51.178Z,1.37
2023-03-17T13:57:28.815Z,1.70
2023-03-17T13:59:55.870Z,1.90
2023-03-17T14:02:18.603Z,2.03
2023-03-17T14:04:44.774Z,2.00
2023-03-17T14:07:10.082Z,1.97
2023-03-17T14:09:36.956Z,1.93
2023-03-17T14:12:00.500Z,2.00
2023-03-17T14:14:32.536Z,1.80
2023-03-17T14:16:56.597Z,2.00
2023-03-17T14:19:21.100Z,1.80
2023-03-17T14:21:43.042Z,1.90
2023-03-17T14:24:18.820Z,2.10
2023-03-17T14:26:40.134Z,2.00
2023-03-17T14:29:02.042Z,2.30
2023-03-17T14:31:24.343Z,2.10
2023-03-17T14:33:45.323Z,2.27
2023-03-17T14:36:08.255Z,2.20
2023-03-17T14:38:30.102Z,2.10
2023-03-17T14:41:00.461Z,2.47
2023-03-17T14:43:21.829Z,2.53
2023-03-17T14:45:47.711Z,2.40
2023-03-17T14:48:10.372Z,2.43
2023-03-17T14:50:33.061Z,2.10
2023-03-17T14:52:54.524Z,1.90
2023-03-17T14:55:17.127Z,1.90
2023-03-17T14:57:39.726Z,2.50
2023-03-17T15:00:01.822Z,2.30
2023-03-17T15:02:23.988Z,2.50
2023-03-17T15:04:52.976Z,2.80
2023-03-17T15:07:29.663Z,2.60
2023-03-17T15:09:59.023Z,2.60
2023-03-17T15:12:24.243Z,3.40
2023-03-17T15:14:47.571Z,3.40
2023-03-17T15:17:17.115Z,3.80
2023-03-17T15:19:40.567Z,3.43
2023-03-17T15:22:05.698Z,3.40
2023-03-17T15:24:29.163Z,4.30
2023-03-17T15:26:50.557Z,3.50
2023-03-17T15:29:11.570Z,4.20
2023-03-17T15:31:34.168Z,3.97
2023-03-17T15:33:55.213Z,4.00
2023-03-17T15:36:31.785Z,4.20
2023-03-17T15:38:53.829Z,4.07
2023-03-17T15:41:15.498Z,4.43
2023-03-17T15:43:36.915Z,3.97
2023-03-17T15:46:00.286Z,4.30
2023-03-17T15:48:24.680Z,4.50
2023-03-17T15:50:46.675Z,4.70
2023-03-17T15:53:07.995Z,5.00
2023-03-17T15:55:30.507Z,5.10
2023-03-17T15:57:55.148Z,4.67
2023-03-17T16:00:18.242Z,4.87
2023-03-17T16:02:39.349Z,5.23
2023-03-17T16:05:02.966Z,4.30
2023-03-17T16:07:24.795Z,4.90
2023-03-17T16:09:47.144Z,4.50
2023-03-17T16:12:10.077Z,4.40
2023-03-17T16:14:31.069Z,5.20
2023-03-17T16:16:52.764Z,4.90
2023-03-17T16:19:18.561Z,4.27
2023-03-17T16:21:41.604Z,4.70
2023-03-17T16:24:03.270Z,4.33
2023-03-17T16:26:24.717Z,4.43
2023-03-17T16:28:47.635Z,4.43
2023-03-17T16:31:17.277Z,4.40
2023-03-17T16:33:39.877Z,4.63
2023-03-17T16:36:02.073Z,4.37
2023-03-17T16:38:26.082Z,4.57
2023-03-17T16:40:48.287Z,4.50
2023-03-17T16:43:24.516Z,3.90
2023-03-17T16:45:47.249Z,3.80
2023-03-17T16:48:13.123Z,3.57
2023-03-17T16:50:34.525Z,3.70
2023-03-17T16:52:55.822Z,3.40
2023-03-17T16:55:19.592Z,3.00
2023-03-17T16:57:41.991Z,2.70
2023-03-17T17:00:03.441Z,2.60
2023-03-17T17:02:24.955Z,3.00
2023-03-17T17:04:46.392Z,3.17
2023-03-17T17:07:07.598Z,2.90
2023-03-17T17:09:29.148Z,3.43
2023-03-17T17:11:51.920Z,3.57
2023-03-17T17:14:13.268Z,3.67
2023-03-17T17:16:36.402Z,3.80
2023-03-17T17:18:58.988Z,3.77
2023-03-17T17:21:20.347Z,3.90
2023-03-17T17:23:41.926Z,4.17
2023-03-17T17:26:03.385Z,4.30
2023-03-17T17:28:27.397Z,4.70
2023-03-17T17:30:48.682Z,4.10
2023-03-17T17:33:10.032Z,4.60
2023-03-17T17:35:32.950Z,4.57
2023-03-17T17:37:54.599Z,5.00
2023-03-17T17:40:18.075Z,4.70
2023-03-17T17:42:39.523Z,4.33
2023-03-17T17:45:02.313Z,5.27
2023-03-17T17:47:23.793Z,4.87
2023-03-17T17:49:45.205Z,5.33
2023-03-17T17:52:06.910Z,5.73
2023-03-17T17:54:28.059Z,5.40
2023-03-17T17:56:49.118Z,5.60
2023-03-17T17:59:10.638Z,5.60
2023-03-17T18:01:33.742Z,5.67
2023-03-17T18:03:54.722Z,5.40
2023-03-17T18:06:17.439Z,5.50
2023-03-17T18:08:38.464Z,5.90
2023-03-17T18:10:59.830Z,6.83
2023-03-17T18:13:21.303Z,9.77
2023-03-17T18:15:42.859Z,9.40
2023-03-17T18:18:06.137Z,21.10
2023-03-17T18:20:27.697Z,11.97
2023-03-17T18:22:49.660Z,12.47
2023-03-17T18:25:11.764Z,11.97
2023-03-17T18:27:33.168Z,10.50
2023-03-17T18:29:55.805Z,8.90
2023-03-17T18:32:16.911Z,9.20
2023-03-17T18:34:43.425Z,9.30
2023-03-17T18:37:04.480Z,8.63
2023-03-17T18:39:25.926Z,7.37
2023-03-17T18:41:46.989Z,7.43
2023-03-17T18:44:10.091Z,6.80
2023-03-17T18:46:31.538Z,7.30
2023-03-17T18:48:52.803Z,6.60
2023-03-17T18:51:15.732Z,6.63
2023-03-17T18:53:38.168Z,6.10
2023-03-17T18:55:59.487Z,5.70
2023-03-17T18:58:20.784Z,6.00
2023-03-17T19:00:42.632Z,6.20
2023-03-17T19:03:04.180Z,5.90
2023-03-17T19:05:26.024Z,6.40
2023-03-17T19:07:48.918Z,6.73
2023-03-17T19:10:11.040Z,5.83
2023-03-17T19:12:32.564Z,6.20
2023-03-17T19:14:53.870Z,6.50
2023-03-17T19:17:15.020Z,6.27
2023-03-17T19:19:36.821Z,6.33
2023-03-17T19:21:58.509Z,7.03
2023-03-17T19:24:21.066Z,7.17
2023-03-17T19:26:42.392Z,7.53
2023-03-17T19:29:03.772Z,7.40
2023-03-17T19:31:25.574Z,8.00
2023-03-17T19:33:47.437Z,7.07
2023-03-17T19:36:10.573Z,7.23
2023-03-17T19:38:31.946Z,6.97
2023-03-17T19:40:55.791Z,6.67
2023-03-17T19:43:32.572Z,5.93
2023-03-17T19:45:58.035Z,5.60
2023-03-17T19:48:19.203Z,6.10
2023-03-17T19:50:40.794Z,5.23
2023-03-17T19:53:01.977Z,5.50
2023-03-17T19:55:24.416Z,5.20
2023-03-17T19:57:47.335Z,5.20
2023-03-17T20:00:09.721Z,5.23
2023-03-17T20:02:31.541Z,4.60
2023-03-17T20:04:52.743Z,4.70
2023-03-17T20:07:14.114Z,6.93
2023-03-17T20:09:37.774Z,8.70
2023-03-17T20:11:59.093Z,7.43
2023-03-17T20:14:21.770Z,6.10
2023-03-17T20:16:43.106Z,5.40
2023-03-17T20:19:04.763Z,6.90
2023-03-17T20:21:25.933Z,6.03
2023-03-17T20:23:47.410Z,5.50
2023-03-17T20:26:09.186Z,4.80
2023-03-17T20:28:30.465Z,6.40
2023-03-17T20:30:53.701Z,6.53
2023-03-17T20:33:14.898Z,6.30
2023-03-17T20:35:35.997Z,5.47
2023-03-17T20:37:58.004Z,5.10
2023-03-17T20:40:19.395Z,4.97
2023-03-17T20:42:41.637Z,4.67
2023-03-17T20:45:03.587Z,4.80
2023-03-17T20:47:26.626Z,5.40
2023-03-17T20:49:48.775Z,5.10
2023-03-17T20:52:13.067Z,9.73
2023-03-17T20:54:34.512Z,6.07
2023-03-17T20:56:56.705Z,6.40
2023-03-17T20:59:18.325Z,4.40
2023-03-17T21:01:40.299Z,4.60
2023-03-17T21:04:06.389Z,4.83
2023-03-17T21:06:28.505Z,6.37
2023-03-17T21:08:49.774Z,5.40
2023-03-17T21:11:14.105Z,6.40
2023-03-17T21:13:36.203Z,7.30
2023-03-17T21:15:57.958Z,8.57
2023-03-17T21:18:19.591Z,7.67
2023-03-17T21:20:42.563Z,9.40
2023-03-17T21:23:05.968Z,7.43
2023-03-17T21:25:27.060Z,6.90
2023-03-17T21:27:48.830Z,6.97
2023-03-17T21:30:12.132Z,6.90
2023-03-17T21:32:33.670Z,6.67
2023-03-17T21:34:55.095Z,5.50
2023-03-17T21:37:18.442Z,5.93
2023-03-17T21:39:40.103Z,6.43
2023-03-17T21:42:02.149Z,6.20
2023-03-17T21:44:23.521Z,6.30
2023-03-17T21:46:45.055Z,6.17
2023-03-17T21:49:07.183Z,6.50
2023-03-17T21:51:28.815Z,6.17
2023-03-17T21:53:51.807Z,6.23
2023-03-17T21:56:13.798Z,6.37
2023-03-17T21:58:35.464Z,6.10
2023-03-17T22:00:57.809Z,5.70
2023-03-17T22:03:19.028Z,5.20
2023-03-17T22:05:40.479Z,4.90
2023-03-17T22:08:02.374Z,5.37
2023-03-17T22:10:25.150Z,4.87
2023-03-17T22:12:47.291Z,5.80
2023-03-17T22:15:10.312Z,5.87
2023-03-17T22:17:32.022Z,5.60
2023-03-17T22:19:53.402Z,5.53
2023-03-17T22:22:15.405Z,5.57
2023-03-17T22:24:37.951Z,5.57
2023-03-17T22:27:00.633Z,5.40
2023-03-17T22:29:22.232Z,5.70
2023-03-17T22:31:43.838Z,6.20
2023-03-17T22:34:05.567Z,5.60
2023-03-17T22:36:27.370Z,5.93
2023-03-17T22:38:48.863Z,5.87
2023-03-17T22:41:12.523Z,6.07
2023-03-17T22:43:34.938Z,5.70
2023-03-17T22:45:56.332Z,6.13
2023-03-17T22:48:18.632Z,5.80
2023-03-17T22:50:45.019Z,6.27
2023-03-17T22:53:06.387Z,6.90
2023-03-17T22:55:27.852Z,7.33
2023-03-17T22:57:49.060Z,7.00
2023-03-17T23:00:17.522Z,7.03
2023-03-17T23:02:39.660Z,6.73
2023-03-17T23:05:00.651Z,6.40
2023-03-17T23:07:22.247Z,6.33
2023-03-17T23:09:43.891Z,7.03
2023-03-17T23:12:05.622Z,5.83
2023-03-17T23:14:26.590Z,6.80
2023-03-17T23:16:49.970Z,6.57
2023-03-17T23:19:11.292Z,6.50
2023-03-17T23:21:33.441Z,6.63
2023-03-17T23:23:55.056Z,6.30
2023-03-17T23:26:16.170Z,6.87
2023-03-17T23:28:37.215Z,7.00
2023-03-17T23:30:58.828Z,6.33
2023-03-17T23:33:22.793Z,6.17
2023-03-17T23:35:44.670Z,6.50
2023-03-17T23:38:06.397Z,7.07
2023-03-17T23:40:27.856Z,6.90
2023-03-17T23:42:49.264Z,6.93
2023-03-17T23:45:11.015Z,6.60
2023-03-17T23:47:34.457Z,6.47
2023-03-17T23:49:57.590Z,6.93
2023-03-17T23:52:18.888Z,7.20
2023-03-17T23:54:40.202Z,7.60
2023-03-17T23:57:02.219Z,7.13
2023-03-17T23:59:23.650Z,7.23
